createdAt,value
2023-04-08T00:00:49.667Z,83.20
2023-04-08T00:03:16.981Z,82.75
2023-04-08T00:05:44.232Z,83.15
2023-04-08T00:08:13.254Z,83.10
2023-04-08T00:10:40.328Z,82.85
2023-04-08T00:13:07.349Z,82.86
2023-04-08T00:15:34.675Z,82.63
2023-04-08T00:18:02.045Z,83.30
2023-04-08T00:20:29.131Z,83.59
2023-04-08T00:22:56.304Z,83.57
2023-04-08T00:25:25.366Z,83.13
2023-04-08T00:27:52.807Z,83.08
2023-04-08T00:30:20.054Z,83.28
2023-04-08T00:32:47.105Z,83.65
2023-04-08T00:35:14.394Z,84.00
2023-04-08T00:37:41.645Z,84.41
2023-04-08T00:40:09.311Z,84.00
2023-04-08T00:42:36.603Z,84.38
2023-04-08T00:45:03.847Z,84.46
2023-04-08T00:47:31.704Z,83.70
2023-04-08T00:49:58.781Z,84.21
2023-04-08T00:52:26.433Z,84.55
2023-04-08T00:54:53.510Z,84.34
2023-04-08T00:57:20.576Z,84.41
2023-04-08T00:59:47.626Z,84.38
2023-04-08T01:02:47.369Z,85.16
2023-04-08T01:05:39.302Z,85.14
2023-04-08T01:08:08.956Z,85.08
2023-04-08T01:10:38.777Z,84.72
2023-04-08T01:13:12.323Z,85.05
2023-04-08T01:15:41.420Z,85.36
2023-04-08T01:18:12.760Z,85.13
2023-04-08T01:20:42.979Z,85.18
2023-04-08T01:23:38.636Z,84.62
2023-04-08T01:26:07.101Z,85.50
2023-04-08T01:28:36.356Z,85.29
2023-04-08T01:31:03.809Z,84.92
2023-04-08T01:33:31.655Z,84.55
2023-04-08T01:35:59.739Z,85.33
2023-04-08T01:38:27.695Z,84.73
2023-04-08T01:40:56.449Z,85.69
2023-04-08T01:43:25.232Z,85.61
2023-04-08T01:45:58.839Z,85.96
2023-04-08T01:48:26.275Z,85.80
2023-04-08T01:50:55.419Z,85.44
2023-04-08T01:53:22.831Z,84.95
2023-04-08T01:55:53.482Z,85.05
2023-04-08T01:58:21.928Z,85.11
2023-04-08T02:00:50.097Z,85.05
2023-04-08T02:03:20.385Z,85.15
2023-04-08T02:05:48.508Z,84.62
2023-04-08T02:08:16.848Z,85.03
2023-04-08T02:10:45.099Z,85.06
2023-04-08T02:13:13.630Z,84.99
2023-04-08T02:15:47.937Z,84.66
2023-04-08T02:18:18.074Z,84.31
2023-04-08T02:20:51.952Z,85.08
2023-04-08T02:23:26.172Z,85.49
2023-04-08T02:25:56.493Z,85.03
2023-04-08T02:28:24.027Z,85.40
2023-04-08T02:30:53.428Z,85.65
2023-04-08T02:33:23.115Z,85.45
2023-04-08T02:35:52.461Z,86.32
2023-04-08T02:38:20.444Z,86.05
2023-04-08T02:40:51.823Z,85.71
2023-04-08T02:43:19.707Z,85.52
2023-04-08T02:45:47.866Z,85.48
2023-04-08T02:48:15.941Z,85.03
2023-04-08T02:50:43.719Z,85.42
2023-04-08T02:53:11.463Z,85.35
2023-04-08T02:55:41.027Z,85.63
2023-04-08T02:58:08.384Z,85.61
2023-04-08T03:00:36.654Z,85.81
2023-04-08T03:03:04.695Z,85.77
2023-04-08T03:05:33.760Z,86.09
2023-04-08T03:08:01.178Z,86.51
2023-04-08T03:10:29.330Z,85.95
2023-04-08T03:12:57.694Z,86.25
2023-04-08T03:15:26.228Z,85.73
2023-04-08T03:17:53.476Z,86.49
2023-04-08T03:20:20.828Z,86.38
2023-04-08T03:22:48.092Z,87.01
2023-04-08T03:25:16.047Z,87.32
2023-04-08T03:27:43.289Z,87.06
2023-04-08T03:30:11.171Z,87.73
2023-04-08T03:32:39.371Z,88.18
2023-04-08T03:35:06.659Z,88.17
2023-04-08T03:37:33.724Z,88.58
2023-04-08T03:40:00.896Z,88.51
2023-04-08T03:42:28.063Z,89.09
2023-04-08T03:44:55.349Z,89.17
2023-04-08T03:47:22.521Z,89.17
2023-04-08T03:49:49.565Z,89.19
2023-04-08T03:52:16.586Z,89.58
2023-04-08T03:54:43.671Z,89.14
2023-04-08T03:57:12.007Z,89.36
2023-04-08T03:59:40.965Z,89.06
2023-04-08T04:02:08.159Z,89.10
2023-04-08T04:04:36.896Z,89.61
2023-04-08T04:07:04.019Z,89.44
2023-04-08T04:09:31.108Z,89.60
2023-04-08T04:11:58.211Z,89.49
2023-04-08T04:14:25.537Z,89.54
2023-04-08T04:16:52.656Z,89.47
2023-04-08T04:19:19.854Z,89.78
2023-04-08T04:21:47.905Z,89.72
2023-04-08T04:24:14.975Z,89.96
2023-04-08T04:26:42.078Z,89.95
2023-04-08T04:29:09.171Z,90.18
2023-04-08T04:31:36.336Z,90.18
2023-04-08T04:34:03.422Z,89.54
2023-04-08T04:36:31.548Z,89.58
2023-04-08T04:38:58.587Z,89.31
2023-04-08T04:41:25.604Z,89.38
2023-04-08T04:43:53.612Z,89.08
2023-04-08T04:46:20.841Z,89.16
2023-04-08T04:48:48.020Z,89.45
2023-04-08T04:51:15.633Z,89.76
2023-04-08T04:53:42.953Z,89.39
2023-04-08T04:56:09.989Z,89.99
2023-04-08T04:58:37.087Z,90.27
2023-04-08T05:01:04.494Z,89.90
2023-04-08T05:03:31.686Z,89.89
2023-04-08T05:05:58.832Z,90.02
2023-04-08T05:08:27.959Z,90.38
2023-04-08T05:10:56.085Z,90.14
2023-04-08T05:13:23.173Z,90.18
2023-04-08T05:15:50.370Z,90.57
2023-04-08T05:18:17.755Z,90.27
2023-04-08T05:20:44.867Z,90.34
2023-04-08T05:23:12.712Z,90.28
2023-04-08T05:25:39.864Z,90.09
2023-04-08T05:28:07.119Z,89.95
2023-04-08T05:30:34.878Z,90.07
2023-04-08T05:33:02.002Z,90.00
2023-04-08T05:35:29.169Z,90.65
2023-04-08T05:37:56.317Z,90.29
2023-04-08T05:40:23.721Z,90.56
2023-04-08T05:42:50.764Z,90.52
2023-04-08T05:45:17.892Z,90.48
2023-04-08T05:47:45.050Z,90.29
2023-04-08T05:50:12.324Z,90.47
2023-04-08T05:52:45.560Z,90.19
2023-04-08T05:55:13.674Z,90.50
2023-04-08T05:57:41.134Z,90.74
2023-04-08T06:00:11.695Z,90.08
2023-04-08T06:02:39.110Z,90.34
2023-04-08T06:05:06.606Z,90.26
2023-04-08T06:07:34.770Z,90.01
2023-04-08T06:10:02.720Z,90.30
2023-04-08T06:12:29.999Z,90.56
2023-04-08T06:14:57.817Z,90.92
2023-04-08T06:17:25.009Z,90.64
2023-04-08T06:19:52.622Z,90.62
2023-04-08T06:22:19.721Z,90.31
2023-04-08T06:24:47.633Z,90.39
2023-04-08T06:27:16.079Z,90.26
2023-04-08T06:29:43.338Z,90.35
2023-04-08T06:32:10.811Z,90.73
2023-04-08T06:34:38.512Z,90.75
2023-04-08T06:37:06.371Z,90.68
2023-04-08T06:39:33.999Z,90.94
2023-04-08T06:42:01.542Z,91.16
2023-04-08T06:44:28.736Z,91.06
2023-04-08T06:46:56.037Z,91.64
2023-04-08T06:49:23.133Z,91.77
2023-04-08T06:51:50.391Z,90.97
2023-04-08T06:54:17.424Z,91.43
2023-04-08T06:56:44.469Z,91.42
2023-04-08T06:59:11.480Z,91.26
2023-04-08T07:01:38.550Z,91.51
2023-04-08T07:04:05.877Z,91.43
2023-04-08T07:06:34.360Z,91.50
2023-04-08T07:09:01.385Z,91.52
2023-04-08T07:11:28.777Z,91.49
2023-04-08T07:13:55.831Z,91.79
2023-04-08T07:16:22.920Z,92.06
2023-04-08T07:18:50.240Z,92.19
2023-04-08T07:21:18.109Z,91.93
2023-04-08T07:23:45.300Z,92.62
2023-04-08T07:26:13.381Z,91.97
2023-04-08T07:28:40.810Z,92.39
2023-04-08T07:31:18.080Z,92.13
2023-04-08T07:33:45.713Z,92.20
2023-04-08T07:36:14.073Z,91.46
2023-04-08T07:38:41.296Z,92.04
2023-04-08T07:41:08.384Z,91.66
2023-04-08T07:43:37.174Z,91.47
2023-04-08T07:46:05.430Z,91.18
2023-04-08T07:48:33.208Z,91.63
2023-04-08T07:51:08.030Z,91.69
2023-04-08T07:53:37.867Z,91.65
2023-04-08T07:56:11.557Z,91.76
2023-04-08T07:58:40.377Z,92.38
2023-04-08T08:01:22.263Z,92.24
2023-04-08T08:03:51.267Z,91.83
2023-04-08T08:06:18.872Z,92.05
2023-04-08T08:08:46.241Z,91.96
2023-04-08T08:11:13.486Z,91.61
2023-04-08T08:13:40.810Z,92.22
2023-04-08T08:16:11.291Z,92.41
2023-04-08T08:18:40.117Z,92.46
2023-04-08T08:21:08.092Z,92.70
2023-04-08T08:23:35.195Z,92.35
2023-04-08T08:26:07.124Z,92.33
2023-04-08T08:28:34.152Z,92.34
2023-04-08T08:31:01.330Z,93.00
2023-04-08T08:33:28.379Z,92.17
2023-04-08T08:35:56.026Z,92.18
2023-04-08T08:38:23.229Z,92.69
2023-04-08T08:40:55.068Z,92.50
2023-04-08T08:43:23.010Z,91.99
2023-04-08T08:45:50.140Z,92.17
2023-04-08T08:48:17.507Z,92.16
2023-04-08T08:50:44.640Z,92.14
2023-04-08T08:53:12.222Z,92.43
2023-04-08T08:56:05.602Z,92.12
2023-04-08T08:58:27.961Z,92.07
2023-04-08T09:00:55.096Z,91.83
2023-04-08T09:03:25.115Z,92.26
2023-04-08T09:05:54.396Z,91.90
2023-04-08T09:08:25.951Z,91.95
2023-04-08T09:10:54.086Z,91.12
2023-04-08T09:13:25.497Z,91.13
2023-04-08T09:16:05.482Z,90.53
2023-04-08T09:18:33.608Z,90.67
2023-04-08T09:21:01.992Z,90.36
2023-04-08T09:23:46.321Z,90.40
2023-04-08T09:26:24.616Z,90.42
2023-04-08T09:29:18.800Z,90.82
2023-04-08T09:31:57.939Z,90.39
2023-04-08T09:34:27.370Z,90.35
2023-04-08T09:36:55.675Z,89.99
2023-04-08T09:39:23.033Z,90.49
2023-04-08T09:41:52.281Z,90.42
2023-04-08T09:44:21.265Z,91.05
2023-04-08T09:46:51.662Z,90.42
2023-04-08T09:49:29.026Z,89.51
2023-04-08T09:52:08.873Z,89.47
2023-04-08T09:54:44.597Z,89.55
2023-04-08T09:57:17.971Z,89.10
2023-04-08T09:59:53.720Z,88.00
2023-04-08T10:02:34.533Z,87.94
2023-04-08T10:05:04.951Z,88.70
2023-04-08T10:07:35.153Z,87.32
2023-04-08T10:10:03.104Z,86.83
2023-04-08T10:12:30.700Z,87.51
2023-04-08T10:15:26.762Z,87.03
2023-04-08T10:18:04.508Z,87.18
2023-04-08T10:20:34.408Z,86.79
2023-04-08T10:23:01.729Z,84.99
2023-04-08T10:25:32.906Z,84.91
2023-04-08T10:28:01.714Z,85.03
2023-04-08T10:30:28.685Z,83.80
2023-04-08T10:33:01.949Z,84.39
2023-04-08T10:35:30.394Z,83.39
2023-04-08T10:37:58.576Z,83.64
2023-04-08T10:40:25.960Z,83.91
2023-04-08T10:42:56.644Z,83.80
2023-04-08T10:45:24.120Z,82.64
2023-04-08T10:47:51.315Z,83.53
2023-04-08T10:50:20.413Z,83.13
2023-04-08T10:52:48.414Z,83.43
2023-04-08T10:55:16.652Z,82.77
2023-04-08T10:57:43.840Z,82.49
2023-04-08T11:00:11.728Z,82.71
2023-04-08T11:02:38.874Z,81.61
2023-04-08T11:05:06.472Z,80.76
2023-04-08T11:07:33.514Z,80.97
2023-04-08T11:10:03.779Z,80.19
2023-04-08T11:12:32.411Z,80.44
2023-04-08T11:14:59.529Z,78.98
2023-04-08T11:17:27.146Z,77.48
2023-04-08T11:19:54.612Z,77.92
2023-04-08T11:22:23.120Z,78.86
2023-04-08T11:24:50.260Z,78.38
2023-04-08T11:27:17.651Z,76.25
2023-04-08T11:29:44.989Z,76.70
2023-04-08T11:32:12.512Z,76.73
2023-04-08T11:34:40.563Z,75.57
2023-04-08T11:37:07.576Z,75.96
2023-04-08T11:39:35.289Z,74.87
2023-04-08T11:42:02.314Z,74.32
2023-04-08T11:44:33.198Z,74.33
2023-04-08T11:47:02.061Z,74.15
2023-04-08T11:49:44.625Z,74.76
2023-04-08T11:52:11.971Z,74.41
2023-04-08T11:54:41.916Z,73.85
2023-04-08T11:57:12.085Z,74.81
2023-04-08T11:59:39.137Z,75.35
2023-04-08T12:02:06.348Z,74.69
2023-04-08T12:04:34.373Z,75.40
2023-04-08T12:07:01.945Z,74.78
2023-04-08T12:09:28.971Z,76.15
2023-04-08T12:11:56.709Z,75.93
2023-04-08T12:14:26.765Z,75.34
2023-04-08T12:16:55.174Z,74.55
2023-04-08T12:19:22.225Z,74.87
2023-04-08T12:21:49.272Z,74.10
2023-04-08T12:24:16.305Z,73.55
2023-04-08T12:26:43.364Z,74.14
2023-04-08T12:29:11.740Z,74.46
2023-04-08T12:31:38.865Z,74.67
2023-04-08T12:34:07.046Z,74.58
2023-04-08T12:36:34.070Z,74.95
2023-04-08T12:39:01.160Z,74.75
2023-04-08T12:41:28.192Z,74.71
2023-04-08T12:43:55.296Z,74.68
2023-04-08T12:46:22.686Z,74.21
2023-04-08T12:49:02.940Z,74.63
2023-04-08T12:51:31.176Z,75.34
2023-04-08T12:53:59.598Z,75.33
2023-04-08T12:56:27.219Z,74.96
2023-04-08T12:58:55.742Z,75.24
2023-04-08T13:01:22.847Z,74.64
2023-04-08T13:03:50.124Z,74.49
2023-04-08T13:06:17.269Z,74.26
2023-04-08T13:08:44.343Z,74.51
2023-04-08T13:11:11.464Z,74.65
2023-04-08T13:13:38.562Z,74.05
2023-04-08T13:16:05.776Z,73.43
2023-04-08T13:18:32.858Z,72.69
2023-04-08T13:20:59.943Z,73.87
2023-04-08T13:23:27.492Z,72.92
2023-04-08T13:25:54.527Z,72.15
2023-04-08T13:28:21.673Z,72.30
2023-04-08T13:30:48.957Z,72.04
2023-04-08T13:33:16.196Z,72.22
2023-04-08T13:35:43.450Z,72.17
2023-04-08T13:38:10.540Z,71.80
2023-04-08T13:40:37.600Z,72.39
2023-04-08T13:43:04.625Z,72.80
2023-04-08T13:45:31.718Z,73.21
2023-04-08T13:47:59.638Z,72.14
2023-04-08T13:50:26.992Z,71.91
2023-04-08T13:52:54.054Z,72.24
2023-04-08T13:55:21.194Z,72.75
2023-04-08T13:57:48.302Z,72.58
2023-04-08T14:00:15.872Z,72.17
2023-04-08T14:02:43.222Z,72.60
2023-04-08T14:05:10.706Z,72.35
2023-04-08T14:07:37.784Z,72.54
2023-04-08T14:10:05.378Z,72.65
2023-04-08T14:12:32.406Z,73.23
2023-04-08T14:15:00.202Z,73.13
2023-04-08T14:17:27.298Z,73.11
2023-04-08T14:19:54.407Z,73.64
2023-04-08T14:22:21.793Z,74.21
2023-04-08T14:24:48.827Z,73.69
2023-04-08T14:27:15.981Z,74.08
2023-04-08T14:29:44.597Z,74.12
2023-04-08T14:32:12.403Z,74.26
2023-04-08T14:34:39.455Z,73.90
2023-04-08T14:37:06.544Z,73.73
2023-04-08T14:39:36.366Z,74.42
2023-04-08T14:42:03.467Z,74.21
2023-04-08T14:44:31.569Z,73.73
2023-04-08T14:46:58.617Z,74.20
2023-04-08T14:49:25.783Z,74.14
2023-04-08T14:51:53.461Z,74.67
2023-04-08T14:54:21.097Z,74.97
2023-04-08T14:56:48.131Z,74.13
2023-04-08T14:59:15.262Z,75.31
2023-04-08T15:01:42.466Z,75.07
2023-04-08T15:04:09.955Z,75.43
2023-04-08T15:06:39.008Z,75.21
2023-04-08T15:09:06.399Z,75.08
2023-04-08T15:11:33.444Z,75.34
2023-04-08T15:14:00.495Z,75.06
2023-04-08T15:16:27.635Z,75.66
2023-04-08T15:18:55.098Z,75.00
2023-04-08T15:21:22.830Z,74.98
2023-04-08T15:23:49.886Z,74.75
2023-04-08T15:26:16.919Z,75.11
2023-04-08T15:28:43.973Z,74.81
2023-04-08T15:31:11.603Z,75.04
2023-04-08T15:33:41.293Z,75.52
2023-04-08T15:36:08.907Z,75.24
2023-04-08T15:38:36.419Z,75.48
2023-04-08T15:41:03.443Z,75.25
2023-04-08T15:43:30.618Z,75.46
2023-04-08T15:46:00.465Z,76.04
2023-04-08T15:48:27.498Z,75.62
2023-04-08T15:50:54.578Z,76.30
2023-04-08T15:53:21.727Z,75.82
2023-04-08T15:55:50.235Z,76.05
2023-04-08T15:58:17.560Z,76.38
2023-04-08T16:00:44.679Z,76.03
2023-04-08T16:03:12.666Z,76.74
2023-04-08T16:05:41.624Z,76.39
2023-04-08T16:08:08.769Z,76.18
2023-04-08T16:10:35.931Z,76.42
2023-04-08T16:13:04.043Z,76.11
2023-04-08T16:15:31.165Z,76.10
2023-04-08T16:17:58.264Z,76.17
2023-04-08T16:20:26.374Z,75.48
2023-04-08T16:22:53.609Z,75.77
2023-04-08T16:25:20.694Z,75.92
2023-04-08T16:27:47.889Z,76.30
2023-04-08T16:30:15.070Z,76.09
2023-04-08T16:32:42.195Z,76.24
2023-04-08T16:35:09.450Z,76.19
2023-04-08T16:37:36.496Z,76.47
2023-04-08T16:40:04.359Z,75.91
2023-04-08T16:42:33.110Z,75.86
2023-04-08T16:45:01.073Z,76.62
2023-04-08T16:47:28.873Z,76.20
2023-04-08T16:49:56.114Z,75.72
2023-04-08T16:52:23.280Z,75.61
2023-04-08T16:54:50.452Z,75.79
2023-04-08T16:57:17.620Z,75.35
2023-04-08T16:59:44.646Z,74.94
2023-04-08T17:02:11.906Z,75.25
2023-04-08T17:04:39.078Z,75.00
2023-04-08T17:07:06.359Z,75.40
2023-04-08T17:09:33.426Z,74.73
2023-04-08T17:12:01.322Z,75.21
2023-04-08T17:14:28.507Z,74.79
2023-04-08T17:16:55.833Z,75.10
2023-04-08T17:19:23.018Z,74.86
2023-04-08T17:21:50.225Z,74.73
2023-04-08T17:24:17.581Z,75.08
2023-04-08T17:26:44.704Z,75.62
2023-04-08T17:29:12.223Z,74.96
2023-04-08T17:31:40.037Z,75.23
2023-04-08T17:34:07.861Z,74.84
2023-04-08T17:36:35.022Z,74.74
2023-04-08T17:39:02.277Z,75.29
2023-04-08T17:41:38.940Z,75.78
2023-04-08T17:44:06.693Z,75.12
2023-04-08T17:46:33.816Z,75.34
2023-04-08T17:49:00.872Z,75.16
2023-04-08T17:51:29.296Z,75.52
2023-04-08T17:53:56.460Z,75.18
2023-04-08T17:56:23.608Z,75.36
2023-04-08T17:58:50.852Z,75.54
2023-04-08T18:01:18.006Z,75.25
2023-04-08T18:03:45.193Z,75.01
2023-04-08T18:06:12.310Z,75.47
2023-04-08T18:08:39.358Z,74.74
2023-04-08T18:11:06.471Z,75.29
2023-04-08T18:13:33.542Z,74.37
2023-04-08T18:16:01.718Z,74.00
2023-04-08T18:18:28.792Z,75.03
2023-04-08T18:20:55.824Z,74.06
2023-04-08T18:23:22.926Z,75.22
2023-04-08T18:25:50.605Z,74.64
2023-04-08T18:28:17.670Z,75.00
2023-04-08T18:30:44.821Z,74.53
2023-04-08T18:33:11.875Z,74.81
2023-04-08T18:35:38.970Z,74.96
2023-04-08T18:38:06.044Z,74.79
2023-04-08T18:40:33.642Z,75.09
2023-04-08T18:43:03.452Z,74.67
2023-04-08T18:45:31.256Z,74.66
2023-04-08T18:47:58.575Z,74.90
2023-04-08T18:50:25.671Z,74.25
2023-04-08T18:52:52.908Z,75.49
2023-04-08T18:55:19.939Z,74.77
2023-04-08T18:57:47.782Z,75.15
2023-04-08T19:00:14.944Z,74.94
2023-04-08T19:02:42.210Z,74.81
2023-04-08T19:05:09.417Z,75.27
2023-04-08T19:07:36.458Z,75.21
2023-04-08T19:10:03.556Z,75.24
2023-04-08T19:12:31.324Z,74.79
2023-04-08T19:14:59.287Z,75.13
2023-04-08T19:17:26.351Z,74.82
2023-04-08T19:19:53.408Z,74.52
2023-04-08T19:22:20.756Z,75.64
2023-04-08T19:24:47.816Z,75.03
2023-04-08T19:27:15.798Z,75.62
2023-04-08T19:29:42.847Z,75.78
2023-04-08T19:32:09.950Z,75.68
2023-04-08T19:34:38.412Z,75.18
2023-04-08T19:37:06.719Z,75.90
2023-04-08T19:39:33.795Z,75.91
2023-04-08T19:42:00.857Z,75.50
2023-04-08T19:44:28.849Z,75.62
2023-04-08T19:46:57.663Z,75.00
2023-04-08T19:49:24.901Z,75.13
2023-04-08T19:51:53.826Z,74.92
2023-04-08T19:54:21.623Z,75.09
2023-04-08T19:56:48.905Z,75.07
2023-04-08T19:59:16.645Z,75.45
2023-04-08T20:01:43.813Z,75.05
2023-04-08T20:04:11.094Z,75.21
2023-04-08T20:06:39.594Z,75.42
2023-04-08T20:09:06.820Z,74.95
2023-04-08T20:11:34.219Z,74.66
2023-04-08T20:14:01.555Z,74.65
2023-04-08T20:16:28.782Z,74.28
2023-04-08T20:18:56.306Z,74.14
2023-04-08T20:21:23.403Z,74.18
2023-04-08T20:23:50.478Z,74.12
2023-04-08T20:26:17.682Z,74.11
2023-04-08T20:28:45.908Z,74.15
2023-04-08T20:31:13.154Z,74.22
2023-04-08T20:33:44.175Z,74.50
2023-04-08T20:36:14.760Z,74.62
2023-04-08T20:38:42.372Z,74.32
2023-04-08T20:41:09.514Z,75.01
2023-04-08T20:43:37.273Z,75.43
2023-04-08T20:46:04.514Z,74.95
2023-04-08T20:48:33.064Z,75.12
2023-04-08T20:51:01.070Z,75.84
2023-04-08T20:53:28.104Z,75.54
2023-04-08T20:55:55.764Z,75.25
2023-04-08T20:58:22.880Z,75.19
2023-04-08T21:00:50.025Z,75.11
2023-04-08T21:03:18.008Z,75.44
2023-04-08T21:05:46.600Z,75.29
2023-04-08T21:08:13.640Z,75.63
2023-04-08T21:10:41.527Z,75.92
2023-04-08T21:13:08.557Z,76.05
2023-04-08T21:15:35.707Z,76.27
2023-04-08T21:18:04.016Z,76.28
2023-04-08T21:20:31.262Z,76.54
2023-04-08T21:22:59.641Z,76.63
2023-04-08T21:25:26.716Z,76.79
2023-04-08T21:27:53.769Z,77.00
2023-04-08T21:30:21.328Z,77.27
2023-04-08T21:32:48.507Z,77.26
2023-04-08T21:35:15.606Z,77.12
2023-04-08T21:37:42.994Z,77.08
2023-04-08T21:40:10.297Z,77.23
2023-04-08T21:42:37.357Z,77.68
2023-04-08T21:45:04.611Z,77.20
2023-04-08T21:47:32.169Z,77.76
2023-04-08T21:49:59.263Z,77.54
2023-04-08T21:52:26.639Z,78.51
2023-04-08T21:54:53.678Z,78.67
2023-04-08T21:57:20.973Z,78.48
2023-04-08T21:59:48.589Z,78.35
2023-04-08T22:02:16.606Z,78.67
2023-04-08T22:04:44.662Z,78.87
2023-04-08T22:07:12.049Z,78.97
2023-04-08T22:09:39.326Z,78.69
2023-04-08T22:12:06.388Z,79.00
2023-04-08T22:14:33.437Z,79.51
2023-04-08T22:17:00.655Z,79.25
2023-04-08T22:19:27.756Z,79.16
2023-04-08T22:21:54.808Z,79.43
2023-04-08T22:24:21.950Z,79.42
2023-04-08T22:26:49.113Z,79.90
2023-04-08T22:29:19.128Z,79.79
2023-04-08T22:31:46.302Z,79.69
2023-04-08T22:34:13.343Z,80.11
2023-04-08T22:36:40.432Z,79.86
2023-04-08T22:39:07.720Z,80.38
2023-04-08T22:41:34.861Z,79.75
2023-04-08T22:44:01.918Z,80.40
2023-04-08T22:46:29.101Z,80.37
2023-04-08T22:48:56.374Z,80.59
2023-04-08T22:51:23.462Z,80.38
2023-04-08T22:53:50.545Z,80.87
2023-04-08T22:56:17.664Z,80.93
2023-04-08T22:58:44.714Z,80.78
2023-04-08T23:01:13.541Z,80.40
2023-04-08T23:03:41.613Z,79.89
2023-04-08T23:06:08.901Z,80.63
2023-04-08T23:08:36.281Z,80.83
2023-04-08T23:11:03.301Z,81.16
2023-04-08T23:13:30.342Z,81.31
2023-04-08T23:15:57.441Z,81.09
2023-04-08T23:18:24.932Z,81.44
2023-04-08T23:20:52.898Z,81.41
2023-04-08T23:23:20.467Z,81.41
2023-04-08T23:25:47.668Z,81.47
2023-04-08T23:28:14.696Z,81.59
2023-04-08T23:30:41.859Z,81.71
2023-04-08T23:33:09.071Z,81.91
2023-04-08T23:35:36.149Z,81.52
2023-04-08T23:38:03.264Z,81.98
2023-04-08T23:40:30.395Z,81.33
2023-04-08T23:42:57.423Z,81.36
2023-04-08T23:45:24.586Z,81.58
2023-04-08T23:47:51.756Z,81.58
2023-04-08T23:50:20.253Z,81.58
2023-04-08T23:52:47.400Z,81.27
2023-04-08T23:55:14.592Z,81.84
2023-04-08T23:57:43.576Z,81.93
